Terminal Aerodrome Forecast
Issued by NWS Omaha/Valley, NE

Home | Current Version | Previous Version | Graphics & Text | Print | Product List | Glossary On
Versions: 1 2 3 4 5 6 7 8 9 10 11 12 13 14 15 16 17 18 19 20 21 22 23 24 25 26 27 28 29
642
FTUS43 KOAX 040532
TAFOFK
TAF
KOFK 040532Z 0406/0506 20007KT 5SM BR OVC006
     FM041100 24006KT 5SM BR BKN008
     FM041300 26007KT P6SM SCT010
     FM050400 19006KT P6SM FEW250=

USA.gov is the U.S. government's official web portal to all federal, state and local government web resources and services.